Time;durP1;ratioP1;P1;durP2;ratioP2;P2;SDS_P1;SDS_P2;PMS_P1;PMS_P2;Temp;Humidity;BMP_temperature;BMP_pressure;BME280_temperature;BME280_humidity;BME280_pressure;Samples;Min_cycle;Max_cycle;Signal;HPM_P1;HPM_P2
2022/12/27 00:00:17;;;;;;;3.30;1.50;;;;;;;;;;5050863;28;20453;-74
2022/12/27 00:02:44;;;;;;;2.13;1.93;;;;;;;;;;5049859;28;20445;-75
2022/12/27 00:05:12;;;;;;;2.03;1.50;;;;;;;;;;5050761;28;20457;-75
2022/12/27 00:07:39;;;;;;;1.77;1.37;;;;;;;;;;5050268;28;20476;-75
2022/12/27 00:10:08;;;;;;;1.93;1.53;;;;;;;;;;5050606;28;20890;-74
2022/12/27 00:12:35;;;;;;;2.30;1.60;;;;;;;;;;5049901;28;20825;-76
2022/12/27 00:15:02;;;;;;;1.77;1.67;;;;;;;;;;5049957;28;20469;-74
2022/12/27 00:17:29;;;;;;;3.90;1.50;;;;;;;;;;5050230;28;20841;-75
2022/12/27 00:19:56;;;;;;;1.67;1.40;;;;;;;;;;5051134;28;20444;-75
2022/12/27 00:22:23;;;;;;;1.60;1.40;;;;;;;;;;5051474;28;20460;-74
2022/12/27 00:24:50;;;;;;;5.33;1.80;;;;;;;;;;5050719;28;20831;-75
2022/12/27 00:27:18;;;;;;;1.73;1.63;;;;;;;;;;5055999;28;20484;-75
2022/12/27 00:29:45;;;;;;;4.40;2.00;;;;;;;;;;5055867;28;20449;-74
2022/12/27 00:32:13;;;;;;;2.80;1.87;;;;;;;;;;5056603;28;20825;-76
2022/12/27 00:34:40;;;;;;;1.40;1.40;;;;;;;;;;5057044;28;20439;-74
2022/12/27 00:37:08;;;;;;;1.40;1.40;;;;;;;;;;5056827;28;21168;-75
2022/12/27 00:39:35;;;;;;;1.73;1.63;;;;;;;;;;5055929;28;20467;-75
2022/12/27 00:42:02;;;;;;;1.43;1.43;;;;;;;;;;5049744;28;20932;-76
2022/12/27 00:44:30;;;;;;;2.00;1.60;;;;;;;;;;5049290;28;20453;-74
2022/12/27 00:46:57;;;;;;;1.47;1.37;;;;;;;;;;5049874;28;20465;-75
2022/12/27 00:49:24;;;;;;;1.70;1.60;;;;;;;;;;5049667;28;20452;-76
2022/12/27 00:51:51;;;;;;;2.00;1.40;;;;;;;;;;5049774;28;21000;-74
2022/12/27 00:54:18;;;;;;;1.67;1.57;;;;;;;;;;5049091;28;20450;-75
2022/12/27 00:56:45;;;;;;;1.60;1.50;;;;;;;;;;5049483;28;21087;-75
2022/12/27 00:59:13;;;;;;;1.93;1.50;;;;;;;;;;5049667;28;20502;-75
2022/12/27 01:01:41;;;;;;;1.80;1.70;;;;;;;;;;5049680;28;20448;-75
2022/12/27 01:04:08;;;;;;;1.63;1.60;;;;;;;;;;5049203;28;20440;-75
2022/12/27 01:06:36;;;;;;;2.20;2.00;;;;;;;;;;5048784;28;20972;-74
2022/12/27 01:09:03;;;;;;;4.13;1.80;;;;;;;;;;5050101;28;20449;-74
2022/12/27 01:11:30;;;;;;;1.90;1.77;;;;;;;;;;5049612;28;20552;-75
2022/12/27 01:13:58;;;;;;;1.80;1.70;;;;;;;;;;5047179;28;20522;-74
2022/12/27 01:16:25;;;;;;;4.10;1.70;;;;;;;;;;5029501;28;20485;-75
2022/12/27 01:18:54;;;;;;;3.13;1.87;;;;;;;;;;5029585;28;20465;-75
2022/12/27 01:21:22;;;;;;;2.00;1.47;;;;;;;;;;5029614;28;20460;-75
2022/12/27 01:23:49;;;;;;;2.53;2.00;;;;;;;;;;5029621;28;20480;-74
2022/12/27 01:26:17;;;;;;;6.80;2.07;;;;;;;;;;5030407;28;20472;-75
2022/12/27 01:28:44;;;;;;;3.40;1.80;;;;;;;;;;5030927;28;20458;-75
2022/12/27 01:31:12;;;;;;;4.93;2.30;;;;;;;;;;5031882;28;20460;-75
2022/12/27 01:33:39;;;;;;;1.77;1.70;;;;;;;;;;5031515;28;20444;-74
2022/12/27 01:36:12;;;;;;;3.07;2.20;;;;;;;;;;5030036;28;20485;-74
2022/12/27 01:38:41;;;;;;;3.00;2.20;;;;;;;;;;5029557;28;20497;-75
2022/12/27 01:43:50;;;;;;;2.87;2.07;;;;;;;;;;5029823;28;20457;-74
2022/12/27 01:46:18;;;;;;;1.93;1.70;;;;;;;;;;5032875;28;20448;-74
2022/12/27 01:48:45;;;;;;;2.00;1.83;;;;;;;;;;5031714;28;20450;-75
2022/12/27 01:51:14;;;;;;;2.53;1.60;;;;;;;;;;5032267;28;20437;-74
2022/12/27 01:53:43;;;;;;;2.73;1.87;;;;;;;;;;5032519;28;20453;-74
2022/12/27 01:56:11;;;;;;;4.00;1.67;;;;;;;;;;5029311;28;20478;-74
2022/12/27 01:58:40;;;;;;;1.90;1.80;;;;;;;;;;5029453;28;20473;-74
2022/12/27 02:01:11;;;;;;;2.03;1.40;;;;;;;;;;5030235;28;20480;-75
2022/12/27 02:03:41;;;;;;;2.23;1.63;;;;;;;;;;5046786;28;20448;-74
2022/12/27 02:06:09;;;;;;;3.53;3.23;;;;;;;;;;5049676;28;20443;-74
2022/12/27 02:08:41;;;;;;;3.10;1.57;;;;;;;;;;5050146;28;20471;-74
2022/12/27 02:11:09;;;;;;;3.20;1.87;;;;;;;;;;5050202;28;20925;-75
2022/12/27 02:13:37;;;;;;;3.00;1.97;;;;;;;;;;5049610;28;20448;-75
2022/12/27 02:16:10;;;;;;;1.83;1.70;;;;;;;;;;5050564;28;20477;-76
2022/12/27 02:18:37;;;;;;;3.60;1.70;;;;;;;;;;5053114;28;20460;-75
2022/12/27 02:21:22;;;;;;;1.90;1.70;;;;;;;;;;5052619;28;20449;-75
2022/12/27 02:24:04;;;;;;;6.20;1.90;;;;;;;;;;5042810;28;20459;-75
2022/12/27 02:26:36;;;;;;;1.63;1.53;;;;;;;;;;5053092;28;20811;-75
2022/12/27 02:29:12;;;;;;;5.07;2.00;;;;;;;;;;5053546;28;20456;-75
2022/12/27 02:31:40;;;;;;;1.63;1.40;;;;;;;;;;5053156;28;20873;-74
2022/12/27 02:34:11;;;;;;;1.60;1.50;;;;;;;;;;5052239;28;20445;-74
2022/12/27 02:36:39;;;;;;;2.30;1.53;;;;;;;;;;5052723;28;20476;-75
2022/12/27 02:39:07;;;;;;;1.50;1.40;;;;;;;;;;5052367;28;20441;-75
2022/12/27 02:55:33;;;;;;;1.47;1.37;;;;;;;;;;5052090;28;20463;-74
2022/12/27 02:58:05;;;;;;;2.23;1.37;;;;;;;;;;5051762;28;20497;-74
2022/12/27 03:03:47;;;;;;;5.20;1.80;;;;;;;;;;5051370;28;20421;-73
2022/12/27 03:06:39;;;;;;;2.40;1.60;;;;;;;;;;5051741;28;20819;-74
2022/12/27 03:09:10;;;;;;;3.43;1.50;;;;;;;;;;5051741;28;20833;-75
2022/12/27 03:17:21;;;;;;;1.37;1.30;;;;;;;;;;5031679;28;20482;-75
2022/12/27 03:25:32;;;;;;;2.37;1.70;;;;;;;;;;4989892;28;20793;-75
2022/12/27 03:33:36;;;;;;;2.40;2.00;;;;;;;;;;5031158;28;20454;-74
2022/12/27 03:38:53;;;;;;;2.10;1.97;;;;;;;;;;5031433;28;20416;-74
2022/12/27 03:44:23;;;;;;;2.03;1.90;;;;;;;;;;5030796;28;20422;-74
2022/12/27 03:46:52;;;;;;;1.40;1.30;;;;;;;;;;5031271;28;20574;-75
2022/12/27 03:49:23;;;;;;;4.20;1.70;;;;;;;;;;5031303;28;20443;-75
2022/12/27 03:51:53;;;;;;;4.13;1.70;;;;;;;;;;5031176;28;20798;-75
2022/12/27 03:54:25;;;;;;;1.47;1.47;;;;;;;;;;5029934;28;20473;-74
2022/12/27 03:56:52;;;;;;;2.03;1.67;;;;;;;;;;5030157;28;20493;-75
2022/12/27 03:59:19;;;;;;;1.60;1.50;;;;;;;;;;5031027;28;20938;-76
2022/12/27 04:01:46;;;;;;;2.30;1.57;;;;;;;;;;5030599;28;20834;-74
2022/12/27 04:04:14;;;;;;;1.37;1.37;;;;;;;;;;5030196;28;20454;-75
2022/12/27 04:06:42;;;;;;;1.80;1.70;;;;;;;;;;5031048;28;20468;-75
2022/12/27 04:36:38;;;;;;;2.67;1.70;;;;;;;;;;5050394;28;20475;-74
2022/12/27 04:39:07;;;;;;;1.90;1.80;;;;;;;;;;5053096;28;20900;-74
2022/12/27 04:55:21;;;;;;;2.23;2.13;;;;;;;;;;5049903;28;20471;-75
2022/12/27 04:57:48;;;;;;;2.00;1.90;;;;;;;;;;5049890;28;20946;-73
2022/12/27 05:03:01;;;;;;;2.07;1.73;;;;;;;;;;5049421;28;20535;-74
2022/12/27 05:05:28;;;;;;;2.40;2.00;;;;;;;;;;5049919;28;20445;-75
2022/12/27 05:16:12;;;;;;;2.73;2.00;;;;;;;;;;5029558;28;20460;-75
2022/12/27 05:18:39;;;;;;;3.70;2.20;;;;;;;;;;5029525;28;20476;-74
2022/12/27 05:21:06;;;;;;;3.33;2.43;;;;;;;;;;5029166;28;20452;-75
2022/12/27 05:26:21;;;;;;;2.23;2.03;;;;;;;;;;5029704;28;20522;-75
2022/12/27 05:28:48;;;;;;;2.77;2.43;;;;;;;;;;5029695;28;20527;-75
2022/12/27 05:31:15;;;;;;;2.53;2.33;;;;;;;;;;5030225;28;20456;-75
2022/12/27 05:33:42;;;;;;;3.17;2.90;;;;;;;;;;5030927;28;20858;-75
2022/12/27 05:36:10;;;;;;;2.73;2.53;;;;;;;;;;5030505;28;20475;-75
2022/12/27 05:38:37;;;;;;;2.30;2.10;;;;;;;;;;5029396;28;20494;-75
2022/12/27 05:41:05;;;;;;;2.37;2.27;;;;;;;;;;5029616;28;20871;-75
2022/12/27 05:43:33;;;;;;;2.37;2.27;;;;;;;;;;5029106;28;20998;-75
2022/12/27 05:46:03;;;;;;;5.20;2.47;;;;;;;;;;5029487;28;20433;-75
2022/12/27 05:48:30;;;;;;;1.93;1.83;;;;;;;;;;5029657;28;20466;-75
2022/12/27 05:50:57;;;;;;;2.37;2.27;;;;;;;;;;5029731;28;20456;-74
2022/12/27 05:53:24;;;;;;;2.90;2.60;;;;;;;;;;5032671;28;20449;-75
2022/12/27 05:55:54;;;;;;;2.30;2.20;;;;;;;;;;5033338;28;20539;-74
2022/12/27 05:58:21;;;;;;;3.20;2.27;;;;;;;;;;5032862;28;20496;-76
2022/12/27 06:00:49;;;;;;;2.40;2.20;;;;;;;;;;5033320;28;20794;-74
2022/12/27 06:03:16;;;;;;;2.70;2.50;;;;;;;;;;5032878;28;20444;-75
2022/12/27 06:05:43;;;;;;;2.80;2.60;;;;;;;;;;5033348;28;20450;-75
2022/12/27 06:08:11;;;;;;;2.50;2.30;;;;;;;;;;5034122;28;20470;-75
2022/12/27 06:10:38;;;;;;;4.57;2.80;;;;;;;;;;5034836;28;20446;-76
2022/12/27 06:13:06;;;;;;;6.70;2.47;;;;;;;;;;5034969;28;20965;-74
2022/12/27 06:15:33;;;;;;;2.70;2.50;;;;;;;;;;5050866;28;20844;-75
2022/12/27 06:18:02;;;;;;;4.70;2.60;;;;;;;;;;5057551;28;20491;-75
2022/12/27 06:20:29;;;;;;;2.67;2.47;;;;;;;;;;5062339;28;20443;-74
2022/12/27 06:22:58;;;;;;;2.90;2.00;;;;;;;;;;5061040;28;20452;-75
2022/12/27 06:25:25;;;;;;;2.93;2.73;;;;;;;;;;5062174;28;20452;-74
2022/12/27 06:27:52;;;;;;;5.47;2.50;;;;;;;;;;5054206;28;21020;-75
2022/12/27 06:30:20;;;;;;;2.83;2.53;;;;;;;;;;5052487;28;20448;-75
2022/12/27 06:32:47;;;;;;;2.67;2.47;;;;;;;;;;5052007;28;20474;-75
2022/12/27 06:35:15;;;;;;;2.77;2.53;;;;;;;;;;5052811;28;20945;-76
2022/12/27 06:37:42;;;;;;;4.00;2.53;;;;;;;;;;5052375;28;20484;-74
2022/12/27 06:40:10;;;;;;;2.70;2.50;;;;;;;;;;5052920;28;20938;-74
2022/12/27 06:42:37;;;;;;;2.10;2.00;;;;;;;;;;5051897;28;20494;-77
2022/12/27 06:45:05;;;;;;;3.17;2.97;;;;;;;;;;5052323;28;20448;-75
2022/12/27 06:47:32;;;;;;;2.70;2.23;;;;;;;;;;5049370;28;20476;-75
2022/12/27 06:49:59;;;;;;;4.20;3.47;;;;;;;;;;5052954;28;20959;-75
2022/12/27 06:52:28;;;;;;;2.63;2.43;;;;;;;;;;5052280;28;20448;-75
2022/12/27 06:54:55;;;;;;;3.83;2.90;;;;;;;;;;5066210;28;20783;-75
2022/12/27 06:57:22;;;;;;;3.90;2.80;;;;;;;;;;5071700;28;20487;-75
2022/12/27 06:59:49;;;;;;;3.60;2.60;;;;;;;;;;5071872;28;20448;-75
2022/12/27 07:02:16;;;;;;;2.87;2.67;;;;;;;;;;5064568;28;20452;-74
2022/12/27 07:04:43;;;;;;;5.83;2.87;;;;;;;;;;5050207;28;20452;-74
2022/12/27 07:07:10;;;;;;;3.00;2.80;;;;;;;;;;5051785;28;20456;-74
2022/12/27 07:09:38;;;;;;;2.57;2.40;;;;;;;;;;5051749;28;20456;-74
2022/12/27 07:12:06;;;;;;;6.30;3.37;;;;;;;;;;5051724;28;20864;-74
2022/12/27 07:14:33;;;;;;;2.67;2.47;;;;;;;;;;5044337;28;20445;-75
2022/12/27 07:17:00;;;;;;;2.90;2.70;;;;;;;;;;5042632;28;20986;-75
2022/12/27 07:19:27;;;;;;;2.63;2.43;;;;;;;;;;5054027;28;20453;-75
2022/12/27 07:21:54;;;;;;;3.43;3.13;;;;;;;;;;5050950;28;20448;-75
2022/12/27 07:24:21;;;;;;;2.90;2.10;;;;;;;;;;5049197;28;20461;-75
2022/12/27 07:26:49;;;;;;;2.20;2.10;;;;;;;;;;5049630;28;20886;-76
2022/12/27 07:29:16;;;;;;;3.50;2.27;;;;;;;;;;5049742;28;20834;-75
2022/12/27 07:31:43;;;;;;;2.13;2.03;;;;;;;;;;5051074;28;20449;-75
2022/12/27 07:34:11;;;;;;;2.90;2.60;;;;;;;;;;5050613;28;21072;-76
2022/12/27 07:36:38;;;;;;;4.30;2.00;;;;;;;;;;5050571;28;20490;-75
2022/12/27 07:39:06;;;;;;;3.70;2.00;;;;;;;;;;5059811;28;20480;-76
2022/12/27 07:41:33;;;;;;;2.10;2.00;;;;;;;;;;5056198;28;20530;-77
2022/12/27 07:44:02;;;;;;;2.50;1.90;;;;;;;;;;5050767;28;20452;-76
2022/12/27 07:46:29;;;;;;;4.00;2.10;;;;;;;;;;5051499;28;20448;-76
2022/12/27 07:48:57;;;;;;;2.63;2.43;;;;;;;;;;5051156;28;20441;-74
2022/12/27 07:51:24;;;;;;;4.03;3.17;;;;;;;;;;5052469;28;20444;-74
2022/12/27 07:53:52;;;;;;;2.07;1.87;;;;;;;;;;5055972;28;20444;-77
2022/12/27 07:56:20;;;;;;;3.43;3.07;;;;;;;;;;5053398;28;20827;-75
2022/12/27 07:58:48;;;;;;;3.70;2.43;;;;;;;;;;5055367;28;20498;-74
2022/12/27 08:01:17;;;;;;;6.00;2.17;;;;;;;;;;5054831;28;20448;-78
2022/12/27 08:03:44;;;;;;;2.13;2.00;;;;;;;;;;5054097;28;20449;-76
2022/12/27 08:06:19;;;;;;;2.47;2.27;;;;;;;;;;5053117;28;20444;-75
2022/12/27 08:08:46;;;;;;;4.00;2.60;;;;;;;;;;5051932;28;20452;-76
2022/12/27 08:11:13;;;;;;;2.87;2.33;;;;;;;;;;5050962;28;20447;-77
2022/12/27 08:13:40;;;;;;;2.53;2.33;;;;;;;;;;5049561;28;20463;-75
2022/12/27 08:16:08;;;;;;;2.90;2.70;;;;;;;;;;5030126;28;20945;-76
2022/12/27 08:18:36;;;;;;;4.73;3.30;;;;;;;;;;5030739;28;20497;-76
2022/12/27 08:21:03;;;;;;;11.07;6.80;;;;;;;;;;5030598;28;20814;-75
2022/12/27 08:23:31;;;;;;;5.17;4.50;;;;;;;;;;5030020;28;20453;-76
2022/12/27 08:25:58;;;;;;;9.67;3.67;;;;;;;;;;5031056;28;20444;-76
2022/12/27 08:28:26;;;;;;;2.53;2.33;;;;;;;;;;5030477;28;20797;-76
2022/12/27 08:30:53;;;;;;;2.50;2.30;;;;;;;;;;5030531;28;20452;-75
2022/12/27 08:33:20;;;;;;;2.77;2.53;;;;;;;;;;5029737;28;20862;-75
2022/12/27 08:35:48;;;;;;;3.03;2.73;;;;;;;;;;5030497;28;20504;-75
2022/12/27 08:38:15;;;;;;;3.03;2.37;;;;;;;;;;5030062;28;20479;-76
2022/12/27 08:40:43;;;;;;;3.27;3.00;;;;;;;;;;5030349;28;20457;-77
2022/12/27 08:43:10;;;;;;;3.30;2.30;;;;;;;;;;5029802;28;20454;-74
2022/12/27 08:45:38;;;;;;;3.57;2.20;;;;;;;;;;5030351;28;20455;-75
2022/12/27 08:48:05;;;;;;;2.63;2.40;;;;;;;;;;5030205;28;20463;-75
2022/12/27 08:50:33;;;;;;;2.70;2.23;;;;;;;;;;5030094;28;20886;-76
2022/12/27 08:53:02;;;;;;;2.40;2.20;;;;;;;;;;5029370;28;20446;-76
2022/12/27 08:55:29;;;;;;;2.50;2.30;;;;;;;;;;5030249;28;20908;-75
2022/12/27 08:57:57;;;;;;;2.60;2.40;;;;;;;;;;5029755;28;20478;-75
2022/12/27 09:00:25;;;;;;;2.70;2.50;;;;;;;;;;5030169;28;20502;-76
2022/12/27 09:02:52;;;;;;;2.10;1.90;;;;;;;;;;5029732;28;21025;-76
2022/12/27 09:05:19;;;;;;;2.20;2.10;;;;;;;;;;5030414;28;20461;-75
2022/12/27 09:07:46;;;;;;;3.73;2.43;;;;;;;;;;5030562;28;20464;-75
2022/12/27 09:10:15;;;;;;;3.90;2.43;;;;;;;;;;5030557;28;20452;-74
2022/12/27 09:12:42;;;;;;;2.57;2.37;;;;;;;;;;5029529;28;20928;-76
2022/12/27 09:15:10;;;;;;;2.40;2.20;;;;;;;;;;5030462;28;21276;-76
2022/12/27 09:17:37;;;;;;;2.40;2.20;;;;;;;;;;5030132;28;20546;-76
2022/12/27 09:20:04;;;;;;;4.23;2.13;;;;;;;;;;5030391;28;20503;-75
2022/12/27 09:22:31;;;;;;;3.60;2.20;;;;;;;;;;5029966;28;20450;-79
2022/12/27 09:24:58;;;;;;;2.47;2.27;;;;;;;;;;5030484;28;20451;-77
2022/12/27 09:27:26;;;;;;;3.63;1.90;;;;;;;;;;5032598;28;20497;-76
2022/12/27 09:29:53;;;;;;;3.17;2.23;;;;;;;;;;5034119;28;20446;-76
2022/12/27 09:32:21;;;;;;;4.60;2.93;;;;;;;;;;5034429;28;20454;-76
2022/12/27 09:34:48;;;;;;;3.37;2.00;;;;;;;;;;5034206;28;20446;-77
2022/12/27 09:37:15;;;;;;;4.70;2.63;;;;;;;;;;5034411;28;20470;-75
2022/12/27 09:39:42;;;;;;;1.80;1.70;;;;;;;;;;5033708;28;21010;-75
2022/12/27 09:42:27;;;;;;;1.90;1.80;;;;;;;;;;5034057;28;20442;-76
2022/12/27 09:44:59;;;;;;;2.80;1.90;;;;;;;;;;5033222;28;20429;-76
2022/12/27 09:47:28;;;;;;;2.13;1.80;;;;;;;;;;5034167;28;20493;-76
2022/12/27 09:49:57;;;;;;;2.83;1.80;;;;;;;;;;5033847;28;20525;-75
2022/12/27 09:52:28;;;;;;;12.50;2.03;;;;;;;;;;5033876;28;20446;-78
2022/12/27 09:54:59;;;;;;;3.90;3.00;;;;;;;;;;5033986;28;20450;-76
2022/12/27 09:57:29;;;;;;;4.63;2.20;;;;;;;;;;5034591;28;20473;-75
2022/12/27 09:59:58;;;;;;;2.40;1.97;;;;;;;;;;5034291;28;20536;-76
2022/12/27 10:02:26;;;;;;;1.93;1.83;;;;;;;;;;5034300;28;20449;-76
2022/12/27 10:04:54;;;;;;;2.13;1.90;;;;;;;;;;5033288;28;20450;-76
2022/12/27 10:07:23;;;;;;;3.53;1.77;;;;;;;;;;5034014;28;20549;-76
2022/12/27 10:09:57;;;;;;;2.63;2.43;;;;;;;;;;5038267;28;20450;-76
2022/12/27 10:12:48;;;;;;;1.90;1.80;;;;;;;;;;5038049;28;20454;-77
2022/12/27 10:15:23;;;;;;;2.33;1.77;;;;;;;;;;5036562;28;20496;-77
2022/12/27 10:17:55;;;;;;;4.07;3.23;;;;;;;;;;5054424;28;20457;-77
2022/12/27 10:20:27;;;;;;;4.60;2.43;;;;;;;;;;5053124;28;20441;-76
2022/12/27 10:22:55;;;;;;;2.60;2.20;;;;;;;;;;5053790;28;20449;-76
2022/12/27 10:25:24;;;;;;;2.13;1.93;;;;;;;;;;5065115;28;20449;-76
2022/12/27 10:27:52;;;;;;;3.93;2.00;;;;;;;;;;5060137;28;20850;-75
2022/12/27 10:30:25;;;;;;;2.97;2.17;;;;;;;;;;5056507;28;20441;-74
2022/12/27 10:32:52;;;;;;;2.40;1.80;;;;;;;;;;5055265;28;20541;-76
2022/12/27 10:35:20;;;;;;;3.70;2.53;;;;;;;;;;5054308;28;20449;-75
2022/12/27 10:37:48;;;;;;;5.20;2.10;;;;;;;;;;5052741;28;20462;-76
2022/12/27 10:40:17;;;;;;;1.80;1.70;;;;;;;;;;5052475;28;20508;-76
2022/12/27 10:42:46;;;;;;;2.37;1.77;;;;;;;;;;5052124;28;20461;-77
2022/12/27 10:45:27;;;;;;;2.87;2.00;;;;;;;;;;5052488;28;20437;-75
2022/12/27 10:47:55;;;;;;;2.93;2.73;;;;;;;;;;5052749;28;20469;-76
2022/12/27 10:50:23;;;;;;;4.50;2.57;;;;;;;;;;5052558;28;20441;-76
2022/12/27 10:52:51;;;;;;;4.23;3.00;;;;;;;;;;5052285;28;20456;-77
2022/12/27 10:55:31;;;;;;;1.73;1.63;;;;;;;;;;5053692;28;20467;-76
2022/12/27 10:57:58;;;;;;;2.23;1.93;;;;;;;;;;5052330;28;20457;-76
2022/12/27 11:00:26;;;;;;;2.40;2.00;;;;;;;;;;5063350;28;20425;-76
2022/12/27 11:02:55;;;;;;;2.23;1.93;;;;;;;;;;5071734;28;20499;-75
2022/12/27 11:05:23;;;;;;;3.33;1.80;;;;;;;;;;5072486;28;20884;-75
2022/12/27 11:07:50;;;;;;;2.30;1.73;;;;;;;;;;5072203;28;20492;-75
2022/12/27 11:10:18;;;;;;;2.90;2.00;;;;;;;;;;5072182;28;20951;-76
2022/12/27 11:12:58;;;;;;;5.60;2.53;;;;;;;;;;5071546;28;20451;-77
2022/12/27 11:15:26;;;;;;;1.90;1.80;;;;;;;;;;5055765;28;20841;-76
2022/12/27 11:17:55;;;;;;;2.67;2.13;;;;;;;;;;5051623;28;20446;-76
2022/12/27 11:20:23;;;;;;;2.90;2.23;;;;;;;;;;5051771;28;20573;-76
2022/12/27 11:22:51;;;;;;;2.27;2.00;;;;;;;;;;5051132;28;21007;-76
2022/12/27 11:25:19;;;;;;;2.40;2.20;;;;;;;;;;5051854;28;20448;-76
2022/12/27 11:27:47;;;;;;;2.30;2.03;;;;;;;;;;5051663;28;20484;-77
2022/12/27 11:30:21;;;;;;;7.97;2.20;;;;;;;;;;5052024;28;20446;-76
2022/12/27 11:32:49;;;;;;;3.53;1.77;;;;;;;;;;5051272;28;20434;-76
2022/12/27 11:35:18;;;;;;;2.87;2.37;;;;;;;;;;5051290;28;20503;-77
2022/12/27 11:37:46;;;;;;;3.77;2.30;;;;;;;;;;5051368;28;20469;-76
2022/12/27 11:40:21;;;;;;;4.17;2.63;;;;;;;;;;5051821;28;20485;-75
2022/12/27 11:42:51;;;;;;;2.50;2.17;;;;;;;;;;5050778;28;20448;-76
2022/12/27 11:45:22;;;;;;;3.00;2.27;;;;;;;;;;5051542;28;20453;-76
2022/12/27 11:47:51;;;;;;;1.80;1.60;;;;;;;;;;5051221;28;20469;-75
2022/12/27 11:50:34;;;;;;;4.00;1.60;;;;;;;;;;5050927;28;20453;-76
2022/12/27 11:53:09;;;;;;;3.87;2.00;;;;;;;;;;5050989;28;20430;-75
2022/12/27 11:55:46;;;;;;;1.77;1.67;;;;;;;;;;5051265;28;20444;-77
2022/12/27 11:58:38;;;;;;;4.13;2.00;;;;;;;;;;5051454;28;20481;-77
2022/12/27 12:01:16;;;;;;;1.83;1.70;;;;;;;;;;5036175;28;20453;-78
2022/12/27 12:04:00;;;;;;;6.30;2.60;;;;;;;;;;5050578;28;20464;-76
2022/12/27 12:06:35;;;;;;;1.90;1.73;;;;;;;;;;5056851;28;20437;-75
2022/12/27 12:09:15;;;;;;;2.30;2.00;;;;;;;;;;5064711;28;20440;-75
2022/12/27 12:11:52;;;;;;;6.03;1.47;;;;;;;;;;5064474;28;20433;-77
2022/12/27 12:14:25;;;;;;;2.70;1.60;;;;;;;;;;5058669;28;20450;-77
2022/12/27 12:17:10;;;;;;;2.00;1.80;;;;;;;;;;5031034;28;20589;-76
2022/12/27 12:19:55;;;;;;;3.07;2.00;;;;;;;;;;5023295;28;20884;-76
2022/12/27 12:22:34;;;;;;;3.07;1.63;;;;;;;;;;5030379;28;20532;-77
2022/12/27 12:25:16;;;;;;;3.80;1.73;;;;;;;;;;5030312;28;20444;-75
2022/12/27 12:27:48;;;;;;;1.90;1.40;;;;;;;;;;5022061;28;20478;-75
2022/12/27 12:30:22;;;;;;;6.43;2.03;;;;;;;;;;5030770;28;20431;-76
2022/12/27 12:33:00;;;;;;;4.13;1.63;;;;;;;;;;5029620;28;20529;-76
2022/12/27 12:35:40;;;;;;;2.73;1.43;;;;;;;;;;5030229;28;20438;-75
2022/12/27 12:38:17;;;;;;;3.60;2.03;;;;;;;;;;5030125;28;20458;-77
2022/12/27 12:40:54;;;;;;;3.63;1.73;;;;;;;;;;5029989;28;20549;-75
2022/12/27 12:43:30;;;;;;;2.43;1.80;;;;;;;;;;5029547;28;20449;-75
2022/12/27 12:46:02;;;;;;;3.60;2.10;;;;;;;;;;5030050;28;20450;-75
2022/12/27 12:48:47;;;;;;;4.57;1.80;;;;;;;;;;5030531;28;20462;-76
2022/12/27 12:51:24;;;;;;;1.90;1.70;;;;;;;;;;5030356;28;20438;-76
2022/12/27 12:53:58;;;;;;;2.20;1.83;;;;;;;;;;5029923;28;20441;-76
2022/12/27 12:56:40;;;;;;;3.00;1.93;;;;;;;;;;5030076;28;20449;-76
2022/12/27 12:59:13;;;;;;;2.07;1.83;;;;;;;;;;5030087;28;20863;-76
2022/12/27 13:01:51;;;;;;;4.20;2.10;;;;;;;;;;5029775;28;20977;-76
2022/12/27 13:04:31;;;;;;;2.87;1.70;;;;;;;;;;5043466;28;20622;-76
2022/12/27 13:07:16;;;;;;;3.63;2.30;;;;;;;;;;5044096;28;20951;-75
2022/12/27 13:09:51;;;;;;;2.87;1.90;;;;;;;;;;5031103;28;20454;-77
2022/12/27 13:12:21;;;;;;;2.93;2.07;;;;;;;;;;5030176;28;20458;-75
2022/12/27 13:14:55;;;;;;;2.37;1.90;;;;;;;;;;5038473;28;20446;-74
2022/12/27 13:17:25;;;;;;;2.93;1.90;;;;;;;;;;5049730;28;20461;-75
2022/12/27 13:20:05;;;;;;;4.03;1.63;;;;;;;;;;5050573;28;20745;-76
2022/12/27 13:22:37;;;;;;;1.77;1.67;;;;;;;;;;5050788;28;20957;-77
2022/12/27 13:25:11;;;;;;;2.33;1.90;;;;;;;;;;5051211;28;20552;-78
2022/12/27 13:27:42;;;;;;;2.73;1.73;;;;;;;;;;5051916;28;20488;-76
2022/12/27 13:30:20;;;;;;;2.53;2.23;;;;;;;;;;5051181;28;20445;-76
2022/12/27 13:32:55;;;;;;;3.10;2.00;;;;;;;;;;5049540;28;20481;-76
2022/12/27 13:35:29;;;;;;;4.00;1.77;;;;;;;;;;5049619;28;21067;-76
2022/12/27 13:38:03;;;;;;;2.63;2.30;;;;;;;;;;5049669;28;20465;-76
2022/12/27 13:40:46;;;;;;;3.57;2.77;;;;;;;;;;5050310;28;20480;-78
2022/12/27 13:43:19;;;;;;;1.67;1.57;;;;;;;;;;5047758;28;20532;-75
2022/12/27 13:45:56;;;;;;;1.53;1.43;;;;;;;;;;5047903;28;20933;-76
2022/12/27 13:48:41;;;;;;;2.73;1.87;;;;;;;;;;5047091;28;20473;-76
2022/12/27 13:51:13;;;;;;;2.73;1.60;;;;;;;;;;5047491;28;20441;-76
2022/12/27 13:53:55;;;;;;;2.60;1.73;;;;;;;;;;5046892;28;20445;-77
2022/12/27 13:56:25;;;;;;;2.50;1.60;;;;;;;;;;5044855;28;20449;-77
2022/12/27 13:59:06;;;;;;;4.20;1.87;;;;;;;;;;5047118;28;20449;-78
2022/12/27 14:01:42;;;;;;;2.20;1.63;;;;;;;;;;5047172;28;20495;-78
2022/12/27 14:04:26;;;;;;;1.57;1.47;;;;;;;;;;5046485;28;20436;-75
2022/12/27 14:06:58;;;;;;;2.67;1.53;;;;;;;;;;5047085;28;20469;-76
2022/12/27 14:09:42;;;;;;;2.57;2.10;;;;;;;;;;5047256;28;20477;-76
2022/12/27 14:12:22;;;;;;;1.90;1.67;;;;;;;;;;5047797;28;20691;-76
2022/12/27 14:14:50;;;;;;;1.77;1.37;;;;;;;;;;5046833;28;20457;-76
2022/12/27 14:17:27;;;;;;;1.67;1.57;;;;;;;;;;5050269;28;20473;-76
2022/12/27 14:20:11;;;;;;;2.40;1.77;;;;;;;;;;5049207;28;20492;-77
2022/12/27 14:22:45;;;;;;;5.07;2.27;;;;;;;;;;5049448;28;20445;-79
2022/12/27 14:25:30;;;;;;;2.10;1.90;;;;;;;;;;5052189;28;20432;-77
2022/12/27 14:28:15;;;;;;;3.83;2.23;;;;;;;;;;5057239;28;20499;-74
2022/12/27 14:30:57;;;;;;;3.90;2.20;;;;;;;;;;5062242;28;20456;-77
2022/12/27 14:33:42;;;;;;;3.30;1.40;;;;;;;;;;5056690;28;20441;-75
2022/12/27 14:36:28;;;;;;;6.03;1.67;;;;;;;;;;5057570;28;20441;-75
2022/12/27 14:39:14;;;;;;;1.80;1.70;;;;;;;;;;5057760;28;20937;-75
2022/12/27 14:42:09;;;;;;;3.10;1.97;;;;;;;;;;5059146;28;20971;-75
2022/12/27 14:44:51;;;;;;;2.60;1.50;;;;;;;;;;5024494;28;20449;-75
2022/12/27 14:47:33;;;;;;;1.60;1.50;;;;;;;;;;5058604;28;20503;-76
2022/12/27 14:50:20;;;;;;;1.90;1.30;;;;;;;;;;5055497;28;20445;-77
2022/12/27 14:53:02;;;;;;;1.70;1.60;;;;;;;;;;5051153;28;20438;-75
2022/12/27 14:55:36;;;;;;;2.90;2.17;;;;;;;;;;5042375;28;20443;-76
2022/12/27 14:58:11;;;;;;;2.87;1.60;;;;;;;;;;5044822;28;20461;-74
2022/12/27 15:00:52;;;;;;;1.90;1.60;;;;;;;;;;5047070;28;20483;-78
2022/12/27 15:03:22;;;;;;;2.00;1.60;;;;;;;;;;5059418;28;20659;-76
2022/12/27 15:05:56;;;;;;;4.73;1.83;;;;;;;;;;5059060;28;20461;-75
2022/12/27 15:08:28;;;;;;;4.97;1.70;;;;;;;;;;5058987;28;20470;-76
2022/12/27 15:10:59;;;;;;;3.17;2.63;;;;;;;;;;5058289;28;20446;-76
2022/12/27 15:13:37;;;;;;;4.40;2.37;;;;;;;;;;5052956;28;20505;-76
2022/12/27 15:16:11;;;;;;;3.90;1.90;;;;;;;;;;5031709;28;20957;-76
2022/12/27 15:18:48;;;;;;;2.03;1.80;;;;;;;;;;5032234;28;20461;-77
2022/12/27 15:21:23;;;;;;;2.47;2.03;;;;;;;;;;5032518;28;20914;-78
2022/12/27 15:23:53;;;;;;;3.13;1.73;;;;;;;;;;5031612;28;20898;-75
2022/12/27 15:26:24;;;;;;;2.40;2.17;;;;;;;;;;5032320;28;20532;-74
2022/12/27 15:29:06;;;;;;;4.40;2.00;;;;;;;;;;5031632;28;21016;-76
2022/12/27 15:31:38;;;;;;;3.23;1.87;;;;;;;;;;5029963;28;20479;-76
2022/12/27 15:34:11;;;;;;;3.67;2.20;;;;;;;;;;5031131;28;20438;-77
2022/12/27 15:36:40;;;;;;;3.33;2.07;;;;;;;;;;5043682;28;20997;-75
2022/12/27 15:39:34;;;;;;;4.97;2.30;;;;;;;;;;5049181;28;20452;-76
2022/12/27 15:42:05;;;;;;;2.30;1.67;;;;;;;;;;5049570;28;20433;-78
2022/12/27 15:44:41;;;;;;;2.80;1.60;;;;;;;;;;5050320;28;20540;-75
2022/12/27 15:47:35;;;;;;;4.13;2.07;;;;;;;;;;5050682;28;20476;-75
2022/12/27 15:50:17;;;;;;;3.47;2.63;;;;;;;;;;5051279;28;20449;-75
2022/12/27 15:52:56;;;;;;;5.70;2.90;;;;;;;;;;5047889;28;20511;-75
2022/12/27 15:55:30;;;;;;;4.13;2.23;;;;;;;;;;5050832;28;20445;-75
2022/12/27 15:58:16;;;;;;;3.10;2.07;;;;;;;;;;5051072;28;20472;-74
2022/12/27 16:00:44;;;;;;;2.60;1.80;;;;;;;;;;5052727;28;20491;-74
2022/12/27 16:03:33;;;;;;;2.17;1.80;;;;;;;;;;5051128;28;20441;-75
2022/12/27 16:06:00;;;;;;;2.93;2.13;;;;;;;;;;5050565;28;20474;-75
2022/12/27 16:08:38;;;;;;;2.93;2.30;;;;;;;;;;5050757;28;20462;-74
2022/12/27 16:11:07;;;;;;;5.27;2.73;;;;;;;;;;5051113;28;20503;-74
2022/12/27 16:13:36;;;;;;;8.27;2.60;;;;;;;;;;5050838;28;20449;-75
2022/12/27 16:16:04;;;;;;;3.83;2.73;;;;;;;;;;5052528;28;20445;-75
2022/12/27 16:18:40;;;;;;;6.50;2.67;;;;;;;;;;5051065;28;20957;-76
2022/12/27 16:21:10;;;;;;;4.60;2.50;;;;;;;;;;5052376;28;20484;-75
2022/12/27 16:23:38;;;;;;;3.80;2.50;;;;;;;;;;5050979;28;20448;-77
2022/12/27 16:26:07;;;;;;;2.90;2.60;;;;;;;;;;5050379;28;20445;-75
2022/12/27 16:28:35;;;;;;;2.60;2.40;;;;;;;;;;5050090;28;20477;-75
2022/12/27 16:31:03;;;;;;;7.83;2.83;;;;;;;;;;5050139;28;20441;-74
2022/12/27 16:33:36;;;;;;;5.13;2.57;;;;;;;;;;5049572;28;20447;-77
2022/12/27 16:36:07;;;;;;;4.80;3.00;;;;;;;;;;5049812;28;20453;-76
2022/12/27 16:38:35;;;;;;;3.60;3.00;;;;;;;;;;5049936;28;20974;-76
2022/12/27 16:41:12;;;;;;;4.00;2.67;;;;;;;;;;5049938;28;20489;-75
2022/12/27 16:43:46;;;;;;;6.03;3.33;;;;;;;;;;5048734;28;20460;-76